createdAt,value
2024-01-14T00:07:12.784Z,96.4
2024-01-14T00:22:12.783Z,96.1
2024-01-14T00:27:12.805Z,96
2024-01-14T00:32:12.791Z,96.2
2024-01-14T00:42:12.807Z,96.3
2024-01-14T00:47:12.796Z,96.2
2024-01-14T00:57:12.817Z,96.1
2024-01-14T01:02:12.826Z,96.1
2024-01-14T01:07:13.107Z,96.3
2024-01-14T01:12:12.791Z,96.2
2024-01-14T01:17:12.809Z,96.2
2024-01-14T01:22:12.782Z,96.1
2024-01-14T01:27:12.855Z,95.6
2024-01-14T01:32:12.830Z,95.7
2024-01-14T01:37:12.795Z,95.8
2024-01-14T01:42:12.818Z,96
2024-01-14T01:47:12.790Z,95.8
2024-01-14T01:52:12.820Z,95.9
2024-01-14T01:57:12.809Z,95.7
2024-01-14T02:02:12.808Z,95.6
2024-01-14T02:07:12.884Z,95.4
2024-01-14T02:12:12.838Z,95.6
2024-01-14T02:17:12.763Z,95.8
2024-01-14T02:22:12.784Z,96.1
2024-01-14T02:27:12.873Z,95.6
2024-01-14T02:32:12.837Z,95.6
2024-01-14T02:37:12.821Z,95.7
2024-01-14T02:42:12.781Z,96
2024-01-14T02:47:12.740Z,95.7
2024-01-14T02:52:12.765Z,95.8
2024-01-14T02:57:12.777Z,95.8
2024-01-14T03:02:12.810Z,95.9
2024-01-14T03:07:12.820Z,95.5
2024-01-14T03:12:12.763Z,95.4
2024-01-14T03:27:12.821Z,95.5
2024-01-14T03:32:12.802Z,95.6
2024-01-14T03:37:12.802Z,95.6
2024-01-14T03:52:12.819Z,96
2024-01-14T04:12:12.784Z,96
2024-01-14T04:17:12.767Z,96
2024-01-14T04:27:12.863Z,95.7
2024-01-14T04:47:12.765Z,95.7
2024-01-14T04:57:12.819Z,96.2
2024-01-14T05:07:12.774Z,96.4
2024-01-14T05:12:12.787Z,96.1
2024-01-14T05:27:12.792Z,96.2
2024-01-14T05:32:12.776Z,96.2
2024-01-14T05:37:12.778Z,95.9
2024-01-14T05:47:12.768Z,95.7
2024-01-14T05:52:12.765Z,95.4
2024-01-14T05:57:12.829Z,95.1
2024-01-14T06:07:12.949Z,95.3
2024-01-14T06:12:12.852Z,95.2
2024-01-14T06:17:12.775Z,95.1
2024-01-14T06:22:12.794Z,95.1
2024-01-14T06:27:12.802Z,95.2
2024-01-14T06:32:12.785Z,95.3
2024-01-14T06:37:12.776Z,95.3
2024-01-14T06:42:12.808Z,95.4
2024-01-14T06:47:12.787Z,95.4
2024-01-14T06:52:12.799Z,95.5
2024-01-14T06:57:12.867Z,95.5
2024-01-14T07:02:12.816Z,94.9
2024-01-14T07:07:12.796Z,94.7
2024-01-14T07:12:12.798Z,94.9
2024-01-14T07:17:12.794Z,94.4
2024-01-14T07:22:12.780Z,93.6
2024-01-14T07:27:12.831Z,92.7
2024-01-14T07:32:12.810Z,92.5
2024-01-14T07:37:12.809Z,92
2024-01-14T07:42:12.879Z,91.9
2024-01-14T07:47:12.836Z,92
2024-01-14T07:52:12.788Z,92.3
2024-01-14T07:57:12.883Z,92.9
2024-01-14T08:02:12.805Z,93.1
2024-01-14T08:07:12.839Z,92.2
2024-01-14T08:12:12.818Z,92.3
2024-01-14T08:17:12.822Z,92.2
2024-01-14T08:22:12.820Z,92
2024-01-14T08:27:12.831Z,91.3
2024-01-14T08:32:12.826Z,90.5
2024-01-14T08:37:12.782Z,89.7
2024-01-14T08:42:12.816Z,88.8
2024-01-14T08:47:12.854Z,88.4
2024-01-14T08:52:12.820Z,87.8
2024-01-14T08:57:12.848Z,86.4
2024-01-14T09:02:12.847Z,85.7
2024-01-14T09:07:12.849Z,85.6
2024-01-14T09:12:12.849Z,85
2024-01-14T09:17:12.793Z,84.7
2024-01-14T09:22:12.800Z,84.9
2024-01-14T09:27:12.806Z,85.4
2024-01-14T09:32:12.915Z,85.5
2024-01-14T09:37:12.778Z,85.7
2024-01-14T09:42:12.834Z,85.7
2024-01-14T09:47:12.791Z,86.6
2024-01-14T09:52:12.791Z,87.1
2024-01-14T09:57:12.819Z,87.4
2024-01-14T10:02:12.801Z,88.2
2024-01-14T10:07:12.902Z,88.1
2024-01-14T10:12:12.817Z,87.7
2024-01-14T10:17:12.808Z,87.5
2024-01-14T10:22:15.410Z,87.5
2024-01-14T10:27:12.819Z,88
2024-01-14T10:32:12.785Z,88.1
2024-01-14T10:37:12.794Z,88.5
2024-01-14T10:42:12.814Z,88.7
2024-01-14T10:47:12.791Z,88.9
2024-01-14T10:52:14.174Z,88.5
2024-01-14T10:57:12.807Z,88.2
2024-01-14T11:02:12.815Z,87.9
2024-01-14T11:07:12.797Z,88.1
2024-01-14T11:12:12.800Z,87.8
2024-01-14T11:17:12.773Z,87.1
2024-01-14T11:22:19.569Z,87.4
2024-01-14T11:27:16.118Z,88.4
2024-01-14T11:32:12.830Z,88.2
2024-01-14T11:37:12.742Z,87.8
2024-01-14T11:42:12.801Z,86.7
2024-01-14T11:47:12.768Z,86.1
2024-01-14T11:52:12.774Z,85
2024-01-14T11:57:12.803Z,83.7
2024-01-14T12:02:12.767Z,82
2024-01-14T12:07:12.843Z,81.2
2024-01-14T12:12:14.371Z,81.4
2024-01-14T12:17:12.760Z,81.4
2024-01-14T12:22:12.782Z,82.9
2024-01-14T12:27:12.798Z,83.6
2024-01-14T12:32:12.825Z,83.9
2024-01-14T12:47:12.785Z,84.9
2024-01-14T12:52:12.738Z,85.6
2024-01-14T12:57:16.696Z,86.7
2024-01-14T13:02:12.766Z,86.6
2024-01-14T13:17:12.730Z,84.6
2024-01-14T13:27:12.813Z,85.6
2024-01-14T13:32:12.795Z,85.8
2024-01-14T13:37:12.761Z,86.1
2024-01-14T13:52:12.771Z,86.8
2024-01-14T14:02:12.750Z,86.1
2024-01-14T14:22:12.776Z,88.5
2024-01-14T14:32:13.040Z,90.1
2024-01-14T14:37:12.748Z,90.9
2024-01-14T14:42:12.871Z,91.9
2024-01-14T14:47:12.774Z,92.1
2024-01-14T15:02:12.737Z,92.9
2024-01-14T15:07:12.748Z,93.1
2024-01-14T15:17:12.717Z,93.6
2024-01-14T15:22:13.587Z,94.2
2024-01-14T15:27:12.747Z,94.8
2024-01-14T15:32:12.854Z,95.3
2024-01-14T15:37:12.747Z,95.7
2024-01-14T15:42:12.768Z,96
2024-01-14T15:47:12.711Z,96.3
2024-01-14T15:52:12.749Z,96.5
2024-01-14T15:57:12.821Z,96.8
2024-01-14T16:02:15.143Z,97
2024-01-14T16:07:12.722Z,97.3
2024-01-14T16:12:12.718Z,97.7
2024-01-14T16:17:12.720Z,97.9
2024-01-14T16:22:12.728Z,98.1
2024-01-14T16:27:12.811Z,98.4
2024-01-14T16:32:12.829Z,98.5
2024-01-14T16:37:12.741Z,98.8
2024-01-14T16:42:12.733Z,98.9
2024-01-14T16:47:12.767Z,99.1
2024-01-14T16:52:12.716Z,99.1
2024-01-14T16:57:12.752Z,99.2
2024-01-14T17:02:12.731Z,99
2024-01-14T17:07:12.702Z,98.8
2024-01-14T17:12:12.729Z,98.8
2024-01-14T17:17:13.667Z,99.1
2024-01-14T17:22:12.750Z,99.4
2024-01-14T17:27:12.741Z,99.4
2024-01-14T17:32:12.729Z,99.6
2024-01-14T17:37:12.712Z,99.6
2024-01-14T17:47:12.716Z,99.1
2024-01-14T18:02:12.698Z,99.2
2024-01-14T18:27:12.778Z,99.5
2024-01-14T18:32:12.739Z,99.5
2024-01-14T18:42:15.032Z,99.5
2024-01-14T18:57:12.742Z,99.5
2024-01-14T19:02:12.770Z,98.9
2024-01-14T19:12:12.780Z,98.8
2024-01-14T19:17:12.738Z,98.2
2024-01-14T19:27:12.792Z,97.5
2024-01-14T19:37:12.757Z,98.6
2024-01-14T19:42:12.767Z,99
2024-01-14T20:02:12.736Z,96.8
2024-01-14T20:27:12.784Z,100
2024-01-14T20:32:12.763Z,100
2024-01-14T20:37:12.765Z,100
2024-01-14T20:42:12.785Z,100
2024-01-14T20:47:12.767Z,99.1
2024-01-14T20:52:12.834Z,99
2024-01-14T20:57:12.903Z,99.1
2024-01-14T21:02:12.815Z,99
2024-01-14T21:07:12.826Z,98.6
2024-01-14T21:12:12.792Z,98.7
2024-01-14T21:17:12.774Z,99.6
2024-01-14T21:22:12.764Z,100
2024-01-14T21:27:12.921Z,100
2024-01-14T21:32:12.806Z,100
2024-01-14T21:37:15.084Z,100
2024-01-14T21:42:12.835Z,100
2024-01-14T21:47:12.779Z,100
2024-01-14T21:52:12.778Z,100
2024-01-14T21:57:12.820Z,100
2024-01-14T22:02:12.811Z,100
2024-01-14T22:07:12.796Z,99.8
2024-01-14T22:12:12.849Z,98.6
2024-01-14T22:17:12.803Z,97.9
2024-01-14T22:22:12.824Z,98.2
2024-01-14T22:27:12.856Z,98.3
2024-01-14T22:32:12.807Z,97.6
2024-01-14T22:37:12.797Z,97.3
2024-01-14T22:42:12.826Z,97.4
2024-01-14T22:47:12.803Z,97.8
2024-01-14T22:52:12.880Z,98.8
2024-01-14T22:57:12.841Z,99.3
2024-01-14T23:02:12.843Z,99.3
2024-01-14T23:07:12.867Z,98.4
2024-01-14T23:12:12.824Z,97.7
2024-01-14T23:17:12.830Z,96.7
2024-01-14T23:22:12.792Z,95.9
2024-01-14T23:27:12.838Z,94.9
2024-01-14T23:32:12.796Z,94
2024-01-14T23:37:12.818Z,94
2024-01-14T23:42:12.818Z,94.6
2024-01-14T23:47:12.813Z,95.1
2024-01-14T23:52:12.808Z,95.7
2024-01-14T23:57:12.783Z,96.3
